Time;durP1;ratioP1;P1;durP2;ratioP2;P2;SDS_P1;SDS_P2;PMS_P1;PMS_P2;Temp;Humidity;BMP_temperature;BMP_pressure;BME280_temperature;BME280_humidity;BME280_pressure;Samples;Min_cycle;Max_cycle;Signal;HPM_P1;HPM_P2
2022/05/28 00:03:25;;;;;;;2.63;0.80;;;;;;;;;;20933434;28;20218;-73
2022/05/28 00:13:27;;;;;;;2.13;0.40;;;;;;;;;;20930027;28;20785;-73
2022/05/28 00:23:29;;;;;;;1.07;0.47;;;;;;;;;;20935074;28;20223;-73
2022/05/28 00:33:30;;;;;;;1.47;0.70;;;;;;;;;;20877392;28;20626;-73
2022/05/28 00:43:32;;;;;;;2.27;0.60;;;17.80;97.00;;;;;;20868837;28;20253;-73
2022/05/28 00:53:35;;;;;;;2.47;0.80;;;;;;;;;;20867023;28;20218;-73
2022/05/28 01:03:45;;;;;;;2.77;0.57;;;;;;;;;;20957610;28;20684;-73
2022/05/28 01:14:00;;;;;;;0.67;0.40;;;17.60;99.90;;;;;;20948578;28;20225;-73
2022/05/28 01:24:09;;;;;;;1.87;0.40;;;17.40;93.00;;;;;;20963356;28;20205;-73
2022/05/28 01:34:12;;;;;;;1.10;0.50;;;17.30;99.90;;;;;;20884391;28;20637;-73
2022/05/28 01:44:16;;;;;;;1.30;0.47;;;;;;;;;;20879184;28;20283;-73
2022/05/28 01:54:20;;;;;;;2.23;0.60;;;;;;;;;;20900851;28;20233;-73
2022/05/28 02:04:22;;;;;;;1.80;0.60;;;16.60;97.20;;;;;;20885397;28;20213;-73
2022/05/28 02:14:38;;;;;;;3.03;0.70;;;;;;;;;;20845254;28;20206;-73
2022/05/28 02:24:45;;;;;;;2.27;0.60;;;;;;;;;;20881491;28;20217;-73
2022/05/28 02:34:50;;;;;;;1.43;0.57;;;;;;;;;;20949114;28;20221;-73
2022/05/28 02:44:53;;;;;;;1.90;0.70;;;;;;;;;;20950973;28;20237;-73
2022/05/28 02:54:56;;;;;;;1.53;0.87;;;;;;;;;;20935541;22;20590;-71
2022/05/28 03:04:58;;;;;;;3.83;0.60;;;;;;;;;;20869744;28;20275;-71
2022/05/28 03:15:00;;;;;;;0.60;0.40;;;;;;;;;;20905311;28;20226;-71
2022/05/28 03:25:02;;;;;;;4.27;0.80;;;;;;;;;;20884485;28;20218;-72
2022/05/28 03:35:04;;;;;;;0.87;0.40;;;;;;;;;;20903441;28;20307;-72
2022/05/28 03:45:06;;;;;;;3.90;0.70;;;;;;;;;;20902334;28;20612;-71
2022/05/28 03:55:08;;;;;;;3.80;1.13;;;;;;;;;;20900495;28;20650;-72
2022/05/28 04:05:10;;;;;;;4.80;1.20;;;15.60;99.90;;;;;;20880971;28;20259;-72
2022/05/28 04:15:13;;;;;;;3.33;0.70;;;;;;;;;;20901069;28;20202;-72
2022/05/28 04:25:15;;;;;;;0.73;0.40;;;;;;;;;;20899852;28;20279;-71
2022/05/28 04:35:17;;;;;;;0.67;0.40;;;;;;;;;;20914264;28;20224;-71
2022/05/28 04:45:19;;;;;;;0.93;0.60;;;;;;;;;;20896715;28;20225;-71
2022/05/28 04:55:21;;;;;;;3.27;0.70;;;;;;;;;;20897368;28;20218;-71
2022/05/28 05:05:23;;;;;;;1.23;0.50;;;;;;;;;;20880367;28;20214;-72
2022/05/28 05:15:25;;;;;;;3.10;0.60;;;;;;;;;;20914620;28;20241;-71
2022/05/28 05:25:27;;;;;;;1.23;0.50;;;;;;;;;;20913054;28;20287;-72
2022/05/28 05:35:29;;;;;;;2.07;0.57;;;;;;;;;;20911357;28;20202;-71
2022/05/28 05:45:31;;;;;;;1.93;0.40;;;;;;;;;;20910758;28;20271;-71
2022/05/28 05:55:32;;;;;;;0.93;0.60;;;;;;;;;;20909717;28;20742;-73
2022/05/28 06:05:34;;;;;;;1.63;0.60;;;;;;;;;;20885265;28;20649;-73
2022/05/28 06:15:36;;;;;;;1.27;0.50;;;;;;;;;;20904477;28;20649;-72
2022/05/28 06:25:41;;;;;;;1.77;0.50;;;;;;;;;;20905989;28;20214;-73
2022/05/28 06:35:43;;;;;;;1.07;0.40;;;16.90;94.40;;;;;;20889444;28;20279;-72
2022/05/28 06:45:46;;;;;;;1.87;0.70;;;;;;;;;;20906810;28;20226;-74
2022/05/28 06:55:48;;;;;;;1.27;0.50;;;;;;;;;;20877131;28;20229;-73
2022/05/28 07:05:50;;;;;;;1.90;0.50;;;;;;;;;;20905265;28;20236;-74
2022/05/28 07:15:52;;;;;;;1.00;0.40;;;;;;;;;;20904678;28;20253;-73
2022/05/28 07:25:58;;;;;;;0.87;0.43;;;;;;;;;;20899027;28;20210;-73
2022/05/28 07:36:24;;;;;;;0.70;0.40;;;;;;;;;;20896440;28;20283;-72
2022/05/28 07:46:28;;;;;;;1.63;0.70;;;;;;;;;;20885551;28;20230;-72
2022/05/28 07:56:30;;;;;;;1.67;0.70;;;;;;;;;;20898916;28;20259;-72
2022/05/28 08:06:32;;;;;;;2.13;0.47;;;;;;;;;;20905434;28;20310;-73
2022/05/28 08:16:34;;;;;;;1.80;0.50;;;19.10;97.50;;;;;;20910403;28;20543;-72
2022/05/28 08:26:38;;;;;;;2.90;0.60;;;19.30;96.80;;;;;;20916923;28;20681;-74
2022/05/28 08:36:40;;;;;;;3.20;0.83;;;;;;;;;;20916664;28;20274;-72
2022/05/28 08:46:45;;;;;;;0.70;0.40;;;19.40;94.70;;;;;;20911261;28;20288;-74
2022/05/28 08:56:48;;;;;;;0.97;0.30;;;;;;;;;;20888597;28;20618;-74
2022/05/28 09:06:53;;;;;;;2.00;0.60;;;;;;;;;;20862370;22;20223;-71
2022/05/28 09:16:58;;;;;;;0.63;0.40;;;;;;;;;;20831714;28;20281;-73
2022/05/28 09:27:05;;;;;;;1.67;0.50;;;;;;;;;;20814000;28;20230;-72
2022/05/28 09:37:24;;;;;;;1.20;0.30;;;18.80;82.80;;;;;;20831151;28;20216;-73
2022/05/28 09:47:27;;;;;;;0.83;0.40;;;;;;;;;;20828709;28;20253;-72
2022/05/28 09:57:31;;;;;;;5.37;0.53;;;19.30;89.40;;;;;;20812553;28;20219;-70
2022/05/28 10:07:36;;;;;;;1.27;0.40;;;19.20;86.30;;;;;;20808566;28;20282;-73
2022/05/28 10:17:41;;;;;;;1.87;0.40;;;18.90;94.80;;;;;;20827481;28;20264;-73
2022/05/28 10:27:50;;;;;;;3.13;0.83;;;;;;;;;;20825646;28;20216;-73
2022/05/28 10:37:52;;;;;;;1.10;0.43;;;;;;;;;;20808228;28;20223;-72
2022/05/28 10:48:15;;;;;;;2.00;0.40;;;19.60;93.20;;;;;;20825657;28;20285;-72
2022/05/28 10:58:35;;;;;;;2.53;0.50;;;20.60;91.60;;;;;;20829290;28;20257;-73
2022/05/28 11:08:38;;;;;;;2.63;0.30;;;;;;;;;;20823100;28;20213;-74
2022/05/28 11:19:03;;;;;;;1.43;0.70;;;;;;;;;;20803145;28;20208;-72
2022/05/28 11:29:14;;;;;;;0.67;0.40;;;;;;;;;;20784613;28;20219;-74
2022/05/28 11:39:32;;;;;;;0.80;0.30;;;;;;;;;;20802692;28;20199;-73
2022/05/28 12:00:05;;;;;;;0.83;0.40;;;;;;;;;;20813498;28;20508;-75
2022/05/28 12:10:27;;;;;;;0.67;0.23;;;;;;;;;;20812945;28;20295;-72
2022/05/28 12:20:31;;;;;;;0.80;0.50;;;;;;;;;;20816888;28;20275;-72
2022/05/28 12:30:40;;;;;;;3.13;0.57;;;;;;;;;;20818094;28;20926;-74
2022/05/28 12:40:55;;;;;;;1.27;0.30;;;20.00;77.70;;;;;;20819166;28;20569;-75
2022/05/28 12:51:04;;;;;;;0.53;0.23;;;;;;;;;;20827052;28;20232;-73
2022/05/28 13:01:17;;;;;;;0.27;0.23;;;;;;;;;;20832731;28;20586;-75
2022/05/28 13:11:34;;;;;;;2.93;0.40;;;;;;;;;;20832844;28;20212;-73
2022/05/28 13:21:40;;;;;;;1.40;0.33;;;20.10;80.90;;;;;;20809471;28;20273;-71
2022/05/28 13:31:47;;;;;;;4.00;0.63;;;;;;;;;;20803310;28;20247;-70
2022/05/28 13:41:51;;;;;;;0.83;0.20;;;20.20;86.80;;;;;;20787860;28;20286;-70
2022/05/28 13:51:56;;;;;;;1.23;0.30;;;;;;;;;;20822934;28;20233;-68
2022/05/28 14:01:58;;;;;;;0.60;0.30;;;;;;;;;;20824961;28;20821;-69
2022/05/28 14:12:01;;;;;;;1.17;0.50;;;;;;;;;;20791086;28;20221;-69
2022/05/28 14:22:07;;;;;;;1.07;0.30;;;19.80;84.20;;;;;;20821115;28;20225;-69
2022/05/28 14:32:11;;;;;;;0.50;0.30;;;;;;;;;;20808057;28;20217;-68
2022/05/28 14:42:21;;;;;;;0.37;0.30;;;20.60;87.00;;;;;;20815560;28;20684;-68
2022/05/28 14:52:25;;;;;;;0.40;0.20;;;;;;;;;;20797422;28;20638;-68
2022/05/28 15:02:31;;;;;;;1.07;0.43;;;;;;;;;;20863674;22;20233;-68
2022/05/28 15:12:34;;;;;;;0.27;0.27;;;;;;;;;;20980856;28;20288;-68
2022/05/28 15:22:36;;;;;;;3.07;0.43;;;;;;;;;;20981208;28;20231;-68
2022/05/28 15:32:39;;;;;;;0.40;0.20;;;21.60;77.80;;;;;;20967734;28;20218;-68
2022/05/28 15:42:43;;;;;;;0.27;0.27;;;;;;;;;;20948337;28;20290;-68
2022/05/28 15:52:52;;;;;;;0.63;0.33;;;22.50;76.00;;;;;;20970035;28;20227;-69
2022/05/28 16:02:55;;;;;;;2.13;0.40;;;21.30;82.50;;;;;;20982071;28;20258;-67
2022/05/28 16:12:59;;;;;;;0.57;0.30;;;;;;;;;;20981527;28;20242;-68
2022/05/28 16:23:01;;;;;;;1.00;0.30;;;;;;;;;;20974895;28;20224;-68
2022/05/28 16:33:04;;;;;;;0.63;0.20;;;;;;;;;;20998755;28;20304;-68
2022/05/28 16:43:07;;;;;;;2.60;0.70;;;;;;;;;;20978444;28;20228;-67
2022/05/28 16:53:08;;;;;;;0.47;0.27;;;;;;;;;;20896519;28;20228;-65
2022/05/28 17:03:11;;;;;;;0.60;0.30;;;;;;;;;;20987618;28;20667;-65
2022/05/28 17:13:15;;;;;;;0.53;0.30;;;;;;;;;;20980363;28;20236;-67
2022/05/28 17:23:20;;;;;;;1.50;0.40;;;;;;;;;;20993745;28;20276;-66
2022/05/28 17:33:24;;;;;;;0.53;0.30;;;20.40;86.80;;;;;;20983825;28;20224;-67
2022/05/28 17:43:27;;;;;;;0.83;0.40;;;;;;;;;;20962454;28;20292;-67
2022/05/28 17:53:29;;;;;;;0.97;0.30;;;;;;;;;;20973061;28;20239;-67
2022/05/28 18:03:31;;;;;;;0.40;0.20;;;19.90;81.20;;;;;;20976786;28;20227;-66
2022/05/28 18:13:34;;;;;;;0.20;0.20;;;;;;;;;;20933200;28;20225;-68
2022/05/28 18:23:37;;;;;;;2.37;0.40;;;19.60;87.70;;;;;;20968335;28;20698;-68
2022/05/28 18:33:39;;;;;;;0.60;0.40;;;;;;;;;;20927566;28;20284;-68
2022/05/28 18:43:42;;;;;;;0.50;0.23;;;19.70;88.30;;;;;;20965680;28;20220;-69
2022/05/28 19:04:05;;;;;;;2.20;0.30;;;;;;;;;;20944077;28;20247;-68
2022/05/28 19:14:07;;;;;;;0.80;0.30;;;;;;;;;;20963636;28;20287;-67
2022/05/28 19:24:19;;;;;;;0.63;0.37;;;;;;;;;;20951447;28;20234;-67
2022/05/28 19:34:21;;;;;;;0.33;0.20;;;;;;;;;;20966892;28;20220;-68
2022/05/28 19:44:31;;;;;;;1.13;0.47;;;;;;;;;;20964658;28;20236;-67
2022/05/28 19:54:34;;;;;;;1.73;0.70;;;;;;;;;;20969006;28;20237;-69
2022/05/28 20:04:36;;;;;;;1.27;0.40;;;;;;;;;;20972238;28;20287;-68
2022/05/28 20:14:38;;;;;;;0.70;0.30;;;;;;;;;;20964339;28;20226;-68
2022/05/28 20:24:42;;;;;;;3.60;0.33;;;;;;;;;;20963917;28;20285;-69
2022/05/28 20:34:48;;;;;;;1.27;0.47;;;;;;;;;;20954249;28;20216;-69
2022/05/28 20:44:53;;;;;;;0.40;0.30;;;;;;;;;;20953002;28;20582;-66
2022/05/28 20:54:56;;;;;;;0.27;0.27;;;;;;;;;;20954952;28;20444;-67
2022/05/28 21:04:58;;;;;;;2.63;0.33;;;;;;;;;;20872513;22;20642;-69
2022/05/28 21:15:00;;;;;;;0.80;0.33;;;;;;;;;;20664790;28;20230;-69
2022/05/28 21:25:02;;;;;;;1.10;0.40;;;;;;;;;;20659519;28;20208;-69
2022/05/28 21:35:18;;;;;;;1.03;0.47;;;18.20;92.30;;;;;;20656500;28;20232;-69
2022/05/28 21:45:21;;;;;;;0.70;0.30;;;;;;;;;;20668236;28;20229;-69
2022/05/28 21:55:30;;;;;;;1.20;0.40;;;;;;;;;;20653619;28;20591;-69
2022/05/28 22:05:32;;;;;;;0.60;0.30;;;;;;;;;;20657302;28;20273;-69
2022/05/28 22:15:34;;;;;;;1.93;0.50;;;;;;;;;;20666085;28;20211;-69
2022/05/28 22:25:36;;;;;;;1.10;0.47;;;;;;;;;;20633351;28;20274;-69
2022/05/28 22:35:37;;;;;;;1.97;0.50;;;;;;;;;;20642773;28;20251;-69
2022/05/28 22:45:40;;;;;;;0.90;0.30;;;17.80;95.20;;;;;;20659492;28;20278;-70
2022/05/28 22:55:43;;;;;;;1.93;0.40;;;17.70;93.80;;;;;;20682813;28;20290;-69
2022/05/28 23:05:46;;;;;;;2.83;0.70;;;;;;;;;;20657320;28;20702;-69
2022/05/28 23:15:49;;;;;;;1.30;0.60;;;;;;;;;;20672281;28;20216;-70
2022/05/28 23:25:53;;;;;;;0.47;0.40;;;;;;;;;;20656767;28;20274;-69
2022/05/28 23:35:55;;;;;;;1.33;0.47;;;;;;;;;;20654100;28;20207;-69
2022/05/28 23:45:58;;;;;;;1.53;0.37;;;17.20;96.60;;;;;;20656049;28;20208;-69
2022/05/28 23:56:00;;;;;;;1.33;0.50;;;;;;;;;;20655671;28;20204;-69
